createdAt,value
2019-02-07T00:00:07.933Z,1011.51
2019-02-07T00:01:07.908Z,1011.56
2019-02-07T00:02:07.907Z,1011.54
2019-02-07T00:03:07.880Z,1011.45
2019-02-07T00:04:07.857Z,1011.47
2019-02-07T00:05:07.867Z,1011.40
2019-02-07T00:06:07.831Z,1011.51
2019-02-07T00:07:07.845Z,1011.43
2019-02-07T00:08:07.813Z,1011.42
2019-02-07T00:09:07.801Z,1011.37
2019-02-07T00:10:07.789Z,1011.38
2019-02-07T00:11:07.802Z,1011.33
2019-02-07T00:12:07.772Z,1011.35
2019-02-07T00:13:07.763Z,1011.38
2019-02-07T00:14:07.750Z,1011.27
2019-02-07T00:15:07.753Z,1011.27
2019-02-07T00:16:07.727Z,1011.30
2019-02-07T00:17:07.729Z,1011.27
2019-02-07T00:18:07.797Z,1011.21
2019-02-07T00:19:07.684Z,1011.13
2019-02-07T00:20:07.679Z,1011.15
2019-02-07T00:21:07.667Z,1011.12
2019-02-07T00:22:07.679Z,1011.17
2019-02-07T00:23:07.660Z,1011.19
2019-02-07T00:24:07.631Z,1011.07
2019-02-07T00:25:07.619Z,1011.13
2019-02-07T00:26:07.651Z,1011.11
2019-02-07T00:27:07.605Z,1011.06
2019-02-07T00:28:07.618Z,1011.06
2019-02-07T00:29:07.584Z,1011.05
2019-02-07T00:30:07.585Z,1011.00
2019-02-07T00:31:07.559Z,1010.96
2019-02-07T00:32:07.549Z,1010.89
2019-02-07T00:33:07.534Z,1010.90
2019-02-07T00:34:07.548Z,1010.85
2019-02-07T00:35:07.508Z,1010.82
2019-02-07T00:36:07.501Z,1010.81
2019-02-07T00:37:07.489Z,1010.81
2019-02-07T00:38:14.630Z,1010.84
2019-02-07T00:39:07.498Z,1010.78
2019-02-07T00:40:07.479Z,1010.79
2019-02-07T00:41:07.449Z,1010.81
2019-02-07T00:42:07.464Z,1010.72
2019-02-07T00:43:07.436Z,1010.68
2019-02-07T00:44:07.425Z,1010.63
2019-02-07T00:45:07.397Z,1010.67
2019-02-07T00:46:07.389Z,1010.59
2019-02-07T00:47:07.373Z,1010.56
2019-02-07T00:48:07.372Z,1010.57
2019-02-07T00:49:07.386Z,1010.53
2019-02-07T00:50:07.343Z,1010.50
2019-02-07T00:51:07.353Z,1010.55
2019-02-07T00:52:07.317Z,1010.50
2019-02-07T00:53:07.306Z,1010.44
2019-02-07T00:54:07.297Z,1010.45
2019-02-07T00:55:07.425Z,1010.40
2019-02-07T00:56:07.272Z,1010.33
2019-02-07T00:57:07.262Z,1010.38
2019-02-07T00:58:07.249Z,1010.34
2019-02-07T00:59:07.237Z,1010.28
2019-02-07T01:00:07.234Z,1010.28
2019-02-07T01:01:07.276Z,1010.24
2019-02-07T01:02:07.203Z,1010.21
2019-02-07T01:03:07.200Z,1010.29
2019-02-07T01:04:07.194Z,1010.27
2019-02-07T01:05:07.166Z,1010.15
2019-02-07T01:06:07.323Z,1010.21
2019-02-07T01:07:07.183Z,1010.17
2019-02-07T01:08:07.154Z,1010.16
2019-02-07T01:09:07.209Z,1010.12
2019-02-07T01:10:07.139Z,1010.08
2019-02-07T01:11:07.105Z,1010.12
2019-02-07T01:12:07.127Z,1010.10
2019-02-07T01:13:07.082Z,1010.08
2019-02-07T01:14:07.071Z,1010.08
2019-02-07T01:15:07.055Z,1010.05
2019-02-07T01:16:07.054Z,1009.98
2019-02-07T01:17:07.074Z,1009.99
2019-02-07T01:18:07.046Z,1009.93
2019-02-07T01:19:07.012Z,1009.84
2019-02-07T01:20:07.040Z,1009.92
2019-02-07T01:21:06.990Z,1009.85
2019-02-07T01:22:06.982Z,1009.88
2019-02-07T01:23:06.975Z,1009.86
2019-02-07T01:24:06.975Z,1009.82
2019-02-07T01:25:07.041Z,1009.75
2019-02-07T01:26:06.937Z,1009.72
2019-02-07T01:27:06.924Z,1009.80
2019-02-07T01:28:06.964Z,1009.67
2019-02-07T01:29:06.906Z,1009.65
2019-02-07T01:30:06.913Z,1009.64
2019-02-07T01:31:06.884Z,1009.67
2019-02-07T01:32:06.867Z,1009.65
2019-02-07T01:33:06.863Z,1009.70
2019-02-07T01:34:06.845Z,1009.56
2019-02-07T01:35:06.839Z,1009.61
2019-02-07T01:36:06.854Z,1009.57
2019-02-07T01:37:06.812Z,1009.56
2019-02-07T01:38:06.809Z,1009.57
2019-02-07T01:39:06.791Z,1009.52
2019-02-07T01:40:06.787Z,1009.53
2019-02-07T01:41:06.924Z,1009.53
2019-02-07T01:42:06.762Z,1009.54
2019-02-07T01:43:06.772Z,1009.52
2019-02-07T01:44:06.742Z,1009.49
2019-02-07T01:45:13.032Z,1009.53
2019-02-07T01:46:08.339Z,1009.53
2019-02-07T01:47:06.708Z,1009.51
2019-02-07T01:48:06.708Z,1009.44
2019-02-07T01:49:06.689Z,1009.46
2019-02-07T01:50:06.672Z,1009.43
2019-02-07T01:51:06.738Z,1009.46
2019-02-07T01:52:06.677Z,1009.41
2019-02-07T01:53:07.339Z,1009.42
2019-02-07T01:54:06.624Z,1009.34
2019-02-07T01:55:06.645Z,1009.45
2019-02-07T01:56:06.605Z,1009.39
2019-02-07T01:57:06.590Z,1009.35
2019-02-07T01:58:06.599Z,1009.40
2019-02-07T01:59:06.571Z,1009.36
2019-02-07T02:00:06.562Z,1009.36
2019-02-07T02:01:06.570Z,1009.29
2019-02-07T02:02:06.552Z,1009.31
2019-02-07T02:03:06.524Z,1009.33
2019-02-07T02:04:06.550Z,1009.33
2019-02-07T02:05:06.532Z,1009.34
2019-02-07T02:06:06.501Z,1009.23
2019-02-07T02:07:06.491Z,1009.28
2019-02-07T02:08:06.472Z,1009.21
2019-02-07T02:09:06.461Z,1009.20
2019-02-07T02:10:06.471Z,1009.12
2019-02-07T02:11:06.466Z,1009.09
2019-02-07T02:12:06.430Z,1009.11
2019-02-07T02:13:06.420Z,1009.03
2019-02-07T02:14:06.438Z,1009.05
2019-02-07T02:15:06.442Z,1009.01
2019-02-07T02:16:06.397Z,1009.02
2019-02-07T02:17:06.378Z,1009.01
2019-02-07T02:18:06.367Z,1008.99
2019-02-07T02:19:06.351Z,1008.90
2019-02-07T02:20:06.349Z,1008.92
2019-02-07T02:21:06.411Z,1008.92
2019-02-07T02:22:06.318Z,1008.89
2019-02-07T02:23:06.309Z,1008.87
2019-02-07T02:24:06.295Z,1008.87
2019-02-07T02:25:06.290Z,1008.93
2019-02-07T02:26:06.273Z,1008.91
2019-02-07T02:27:06.282Z,1008.81
2019-02-07T02:28:06.258Z,1008.81
2019-02-07T02:29:06.248Z,1008.78
2019-02-07T02:30:06.243Z,1008.77
2019-02-07T02:31:06.258Z,1008.76
2019-02-07T02:32:06.211Z,1008.71
2019-02-07T02:33:06.201Z,1008.76
2019-02-07T02:34:06.843Z,1008.72
2019-02-07T02:35:06.185Z,1008.62
2019-02-07T02:36:06.167Z,1008.70
2019-02-07T02:37:06.258Z,1008.68
2019-02-07T02:38:06.148Z,1008.59
2019-02-07T02:39:06.133Z,1008.58
2019-02-07T02:40:06.134Z,1008.57
2019-02-07T02:41:06.109Z,1008.48
2019-02-07T02:42:06.108Z,1008.46
2019-02-07T02:43:06.127Z,1008.46
2019-02-07T02:44:06.083Z,1008.54
2019-02-07T02:45:06.158Z,1008.41
2019-02-07T02:46:06.078Z,1008.46
2019-02-07T02:47:06.046Z,1008.40
2019-02-07T02:48:06.054Z,1008.45
2019-02-07T02:49:06.046Z,1008.44
2019-02-07T02:50:06.023Z,1008.38
2019-02-07T02:51:06.001Z,1008.34
2019-02-07T02:52:06.007Z,1008.33
2019-02-07T02:53:06.002Z,1008.26
2019-02-07T02:54:05.995Z,1008.27
2019-02-07T02:55:05.955Z,1008.15
2019-02-07T02:56:05.947Z,1008.15
2019-02-07T02:57:05.935Z,1008.03
2019-02-07T02:58:05.924Z,1008.02
2019-02-07T02:59:05.916Z,1007.96
2019-02-07T03:00:05.931Z,1007.98
2019-02-07T03:01:05.971Z,1007.88
2019-02-07T03:02:05.879Z,1007.88
2019-02-07T03:03:05.878Z,1007.85
2019-02-07T03:04:05.870Z,1007.85
2019-02-07T03:05:05.875Z,1007.79
2019-02-07T03:06:05.838Z,1007.81
2019-02-07T03:07:05.829Z,1007.82
2019-02-07T03:08:05.826Z,1007.86
2019-02-07T03:09:05.806Z,1007.84
2019-02-07T03:10:05.800Z,1007.83
2019-02-07T03:11:05.816Z,1007.81
2019-02-07T03:12:05.781Z,1007.82
2019-02-07T03:13:05.761Z,1007.81
2019-02-07T03:14:05.832Z,1007.80
2019-02-07T03:15:05.737Z,1007.82
2019-02-07T03:16:05.735Z,1007.76
2019-02-07T03:17:05.743Z,1007.67
2019-02-07T03:18:05.712Z,1007.73
2019-02-07T03:19:05.697Z,1007.75
2019-02-07T03:20:05.683Z,1007.64
2019-02-07T03:21:05.677Z,1007.70
2019-02-07T03:22:05.689Z,1007.69
2019-02-07T03:23:05.653Z,1007.65
2019-02-07T03:24:05.646Z,1007.63
2019-02-07T03:25:05.628Z,1007.59
2019-02-07T03:26:05.619Z,1007.55
2019-02-07T03:27:05.608Z,1007.59
2019-02-07T03:28:05.618Z,1007.55
2019-02-07T03:29:05.585Z,1007.62
2019-02-07T03:30:05.671Z,1007.54
2019-02-07T03:31:05.562Z,1007.43
2019-02-07T03:32:05.554Z,1007.40
2019-02-07T03:33:05.588Z,1007.45
2019-02-07T03:34:05.529Z,1007.41
2019-02-07T03:35:05.518Z,1007.37
2019-02-07T03:36:05.509Z,1007.33
2019-02-07T03:37:05.496Z,1007.41
2019-02-07T03:38:05.660Z,1007.32
2019-02-07T03:39:05.477Z,1007.34
2019-02-07T03:40:05.461Z,1007.26
2019-02-07T03:41:05.465Z,1007.35
2019-02-07T03:42:05.449Z,1007.24
2019-02-07T03:43:05.438Z,1007.21
2019-02-07T03:44:05.442Z,1007.17
2019-02-07T03:45:05.429Z,1007.22
2019-02-07T03:46:05.404Z,1007.19
2019-02-07T03:47:05.385Z,1007.29
2019-02-07T03:48:05.383Z,1007.16
2019-02-07T03:49:06.352Z,1007.16
2019-02-07T03:50:05.359Z,1007.20
2019-02-07T03:51:05.370Z,1007.16
2019-02-07T03:52:05.341Z,1007.13
2019-02-07T03:53:05.331Z,1007.15
2019-02-07T03:54:05.390Z,1007.12
2019-02-07T03:55:05.298Z,1007.06
2019-02-07T03:56:05.299Z,1007.07
2019-02-07T03:57:05.328Z,1007.03
2019-02-07T03:58:05.261Z,1006.99
2019-02-07T03:59:05.257Z,1006.97
2019-02-07T04:00:05.274Z,1007.00
2019-02-07T04:01:05.242Z,1006.87
2019-02-07T04:02:05.230Z,1006.81
2019-02-07T04:03:05.208Z,1006.87
2019-02-07T04:04:05.199Z,1006.86
2019-02-07T04:05:05.210Z,1006.81
2019-02-07T04:06:05.176Z,1006.82
2019-02-07T04:07:05.168Z,1006.81
2019-02-07T04:08:05.178Z,1006.82
2019-02-07T04:09:05.178Z,1006.82
2019-02-07T04:10:05.281Z,1006.72
2019-02-07T04:11:05.137Z,1006.66
2019-02-07T04:12:05.139Z,1006.77
2019-02-07T04:13:05.113Z,1006.78
2019-02-07T04:14:05.099Z,1006.77
2019-02-07T04:15:05.079Z,1006.71
2019-02-07T04:16:14.789Z,1006.73
2019-02-07T04:17:06.082Z,1006.70
2019-02-07T04:18:05.050Z,1006.68
2019-02-07T04:19:05.038Z,1006.69
2019-02-07T04:20:05.029Z,1006.71
2019-02-07T04:21:05.020Z,1006.60
2019-02-07T04:22:05.012Z,1006.59
2019-02-07T04:23:05.018Z,1006.61
2019-02-07T04:24:04.985Z,1006.52
2019-02-07T04:25:04.996Z,1006.48
2019-02-07T04:26:04.965Z,1006.55
2019-02-07T04:27:04.948Z,1006.56
2019-02-07T04:28:04.965Z,1006.49
2019-02-07T04:29:04.926Z,1006.52
2019-02-07T04:30:04.917Z,1006.43
2019-02-07T04:31:04.910Z,1006.46
2019-02-07T04:32:04.902Z,1006.50
2019-02-07T04:33:04.911Z,1006.49
2019-02-07T04:34:05.060Z,1006.41
2019-02-07T04:35:04.863Z,1006.42
2019-02-07T04:36:04.860Z,1006.41
2019-02-07T04:37:04.857Z,1006.47
2019-02-07T04:38:04.946Z,1006.39
2019-02-07T04:39:04.819Z,1006.37
2019-02-07T04:40:04.835Z,1006.37
2019-02-07T04:41:04.808Z,1006.32
2019-02-07T04:42:04.787Z,1006.25
2019-02-07T04:43:04.773Z,1006.29
2019-02-07T04:44:04.796Z,1006.26
2019-02-07T04:45:04.750Z,1006.24
2019-02-07T04:46:04.754Z,1006.23
2019-02-07T04:47:04.731Z,1006.14
2019-02-07T04:48:04.728Z,1006.18
2019-02-07T04:49:04.709Z,1006.16
2019-02-07T04:50:04.760Z,1006.10
2019-02-07T04:51:05.362Z,1006.14
2019-02-07T04:52:04.680Z,1006.18
2019-02-07T04:53:04.837Z,1006.10
2019-02-07T04:54:05.414Z,1006.14
2019-02-07T04:55:04.678Z,1006.08
2019-02-07T04:56:04.648Z,1006.13
2019-02-07T04:57:04.654Z,1006.15
2019-02-07T04:58:04.615Z,1006.11
2019-02-07T04:59:04.610Z,1005.92
2019-02-07T05:00:04.592Z,1006.04
2019-02-07T05:01:04.576Z,1005.97
2019-02-07T05:02:04.609Z,1005.98
2019-02-07T05:03:04.557Z,1006.00
2019-02-07T05:04:04.542Z,1005.99
2019-02-07T05:05:04.534Z,1005.94
2019-02-07T05:06:04.544Z,1005.82
2019-02-07T05:07:04.545Z,1005.90
2019-02-07T05:08:04.501Z,1005.83
2019-02-07T05:09:04.586Z,1005.88
2019-02-07T05:10:04.483Z,1005.80
2019-02-07T05:11:04.467Z,1005.81
2019-02-07T05:12:04.467Z,1005.83
2019-02-07T05:13:04.497Z,1005.74
2019-02-07T05:14:04.467Z,1005.78
2019-02-07T05:15:04.425Z,1005.72
2019-02-07T05:16:04.416Z,1005.73
2019-02-07T05:17:04.464Z,1005.75
2019-02-07T05:18:04.445Z,1005.69
2019-02-07T05:19:04.381Z,1005.75
2019-02-07T05:20:04.372Z,1005.67
2019-02-07T05:21:04.364Z,1005.69
2019-02-07T05:22:04.351Z,1005.64
2019-02-07T05:23:04.345Z,1005.63
2019-02-07T05:24:04.352Z,1005.66
2019-02-07T05:25:04.313Z,1005.60
2019-02-07T05:26:04.302Z,1005.47
2019-02-07T05:27:04.302Z,1005.51
2019-02-07T05:28:04.295Z,1005.44
2019-02-07T05:29:04.275Z,1005.51
2019-02-07T05:30:04.391Z,1005.54
2019-02-07T05:31:04.250Z,1005.54
2019-02-07T05:32:04.240Z,1005.50
2019-02-07T05:33:04.311Z,1005.55
2019-02-07T05:34:04.242Z,1005.47
2019-02-07T05:35:04.201Z,1005.42
2019-02-07T05:36:04.196Z,1005.45
2019-02-07T05:37:04.185Z,1005.45
2019-02-07T05:38:04.177Z,1005.49
2019-02-07T05:39:04.184Z,1005.38
2019-02-07T05:40:04.171Z,1005.44
2019-02-07T05:41:04.144Z,1005.42
2019-02-07T05:42:04.144Z,1005.30
2019-02-07T05:43:04.121Z,1005.32
2019-02-07T05:44:04.113Z,1005.29
2019-02-07T05:45:04.132Z,1005.25
2019-02-07T05:46:04.219Z,1005.26
2019-02-07T05:47:04.149Z,1005.22
2019-02-07T05:48:04.060Z,1005.22
2019-02-07T05:49:04.057Z,1005.16
2019-02-07T05:50:04.060Z,1005.19
2019-02-07T05:51:04.027Z,1005.10
2019-02-07T05:52:04.039Z,1005.04
2019-02-07T05:53:04.008Z,1005.09
2019-02-07T05:54:03.993Z,1005.01
2019-02-07T05:55:03.981Z,1005.03
2019-02-07T05:56:03.967Z,1005.04
2019-02-07T05:57:03.989Z,1004.96
2019-02-07T05:58:03.948Z,1004.97
2019-02-07T05:59:03.971Z,1004.92
2019-02-07T06:00:03.932Z,1004.91
2019-02-07T06:01:03.925Z,1004.92
2019-02-07T06:02:03.916Z,1004.94
2019-02-07T06:03:03.891Z,1004.96
2019-02-07T06:04:03.908Z,1004.87
2019-02-07T06:05:03.883Z,1004.90
2019-02-07T06:06:03.859Z,1004.97
2019-02-07T06:07:03.849Z,1004.88
2019-02-07T06:08:03.844Z,1004.81
2019-02-07T06:09:03.830Z,1004.90
2019-02-07T06:10:03.837Z,1004.92
2019-02-07T06:11:03.809Z,1004.87
2019-02-07T06:12:03.815Z,1004.88
2019-02-07T06:13:03.892Z,1004.74
2019-02-07T06:14:03.775Z,1004.75
2019-02-07T06:15:03.766Z,1004.72
2019-02-07T06:16:03.805Z,1004.73
2019-02-07T06:17:03.758Z,1004.81
2019-02-07T06:18:03.725Z,1004.76
2019-02-07T06:19:03.721Z,1004.71
2019-02-07T06:20:03.707Z,1004.68
2019-02-07T06:21:03.690Z,1004.72
2019-02-07T06:22:03.706Z,1004.76
2019-02-07T06:23:03.700Z,1004.65
2019-02-07T06:24:03.665Z,1004.68
2019-02-07T06:25:03.656Z,1004.70
2019-02-07T06:26:03.643Z,1004.70
2019-02-07T06:27:03.636Z,1004.73
2019-02-07T06:28:03.614Z,1004.70
2019-02-07T06:29:03.632Z,1004.64
2019-02-07T06:30:03.593Z,1004.77
2019-02-07T06:31:03.587Z,1004.69
2019-02-07T06:32:04.378Z,1004.69
2019-02-07T06:33:03.580Z,1004.70
2019-02-07T06:34:03.580Z,1004.68
2019-02-07T06:35:03.581Z,1004.70
2019-02-07T06:36:03.528Z,1004.73
2019-02-07T06:37:03.639Z,1004.69
2019-02-07T06:38:03.506Z,1004.67
2019-02-07T06:39:03.500Z,1004.66
2019-02-07T06:40:03.498Z,1004.66
2019-02-07T06:41:10.538Z,1004.65
2019-02-07T06:42:03.459Z,1004.64
2019-02-07T06:43:03.471Z,1004.68
2019-02-07T06:44:03.445Z,1004.71
2019-02-07T06:45:06.129Z,1004.69
2019-02-07T06:46:03.414Z,1004.63
2019-02-07T06:47:13.043Z,1004.77
2019-02-07T06:48:04.434Z,1004.69
2019-02-07T06:49:03.378Z,1004.68
2019-02-07T06:50:03.367Z,1004.68
2019-02-07T06:51:03.354Z,1004.64
2019-02-07T06:52:03.343Z,1004.70
2019-02-07T06:53:03.375Z,1004.73
2019-02-07T06:54:03.367Z,1004.72
2019-02-07T06:55:03.307Z,1004.69
2019-02-07T06:56:03.306Z,1004.74
2019-02-07T06:57:03.288Z,1004.73
2019-02-07T06:58:03.296Z,1004.65
2019-02-07T06:59:03.286Z,1004.64
2019-02-07T07:00:03.253Z,1004.64
2019-02-07T07:01:03.249Z,1004.63
2019-02-07T07:02:03.238Z,1004.62
2019-02-07T07:03:03.224Z,1004.68
2019-02-07T07:04:03.233Z,1004.59
2019-02-07T07:05:03.209Z,1004.65
2019-02-07T07:06:03.183Z,1004.69
2019-02-07T07:07:03.172Z,1004.74
2019-02-07T07:08:03.164Z,1004.65
2019-02-07T07:09:03.174Z,1004.62
2019-02-07T07:10:03.140Z,1004.68
2019-02-07T07:11:03.132Z,1004.62
2019-02-07T07:12:03.277Z,1004.67
2019-02-07T07:13:03.114Z,1004.63
2019-02-07T07:14:03.094Z,1004.63
2019-02-07T07:15:03.157Z,1004.64
2019-02-07T07:16:03.078Z,1004.66
2019-02-07T07:17:03.063Z,1004.61
2019-02-07T07:18:03.051Z,1004.58
2019-02-07T07:19:03.037Z,1004.64
2019-02-07T07:20:03.060Z,1004.59
2019-02-07T07:21:03.026Z,1004.71
2019-02-07T07:22:03.002Z,1004.61
2019-02-07T07:23:03.000Z,1004.59
2019-02-07T07:24:03.007Z,1004.60
2019-02-07T07:25:03.004Z,1004.61
2019-02-07T07:26:02.962Z,1004.62
2019-02-07T07:27:02.948Z,1004.57
2019-02-07T07:28:03.064Z,1004.56
2019-02-07T07:29:02.930Z,1004.52
2019-02-07T07:30:02.927Z,1004.53
2019-02-07T07:31:02.965Z,1004.62
2019-02-07T07:32:02.889Z,1004.54
2019-02-07T07:33:02.885Z,1004.51
2019-02-07T07:34:02.878Z,1004.57
2019-02-07T07:35:02.860Z,1004.53
2019-02-07T07:36:02.979Z,1004.56
2019-02-07T07:37:02.844Z,1004.57
2019-02-07T07:38:02.865Z,1004.59
2019-02-07T07:39:02.840Z,1004.52
2019-02-07T07:40:02.808Z,1004.62
2019-02-07T07:41:02.793Z,1004.54
2019-02-07T07:42:02.813Z,1004.55
2019-02-07T07:43:02.813Z,1004.60
2019-02-07T07:44:02.763Z,1004.50
2019-02-07T07:45:02.759Z,1004.48
2019-02-07T07:46:02.740Z,1004.60
2019-02-07T07:47:02.760Z,1004.59
2019-02-07T07:48:02.713Z,1004.56
2019-02-07T07:49:02.705Z,1004.53
2019-02-07T07:50:02.694Z,1004.56
2019-02-07T07:51:02.695Z,1004.52
2019-02-07T07:52:02.803Z,1004.59
2019-02-07T07:53:02.669Z,1004.56
2019-02-07T07:54:02.649Z,1004.61
2019-02-07T07:55:02.666Z,1004.60
2019-02-07T07:56:02.627Z,1004.58
2019-02-07T07:57:02.648Z,1004.58
2019-02-07T07:58:02.628Z,1004.57
2019-02-07T07:59:02.593Z,1004.45
2019-02-07T08:00:02.587Z,1004.60
2019-02-07T08:01:02.569Z,1004.52
2019-02-07T08:02:02.569Z,1004.63
2019-02-07T08:03:02.548Z,1004.62
2019-02-07T08:04:02.557Z,1004.67
2019-02-07T08:05:02.523Z,1004.50
2019-02-07T08:06:02.522Z,1004.67
2019-02-07T08:07:02.554Z,1004.64
2019-02-07T08:08:02.595Z,1004.72
2019-02-07T08:09:02.524Z,1004.71
2019-02-07T08:10:02.491Z,1004.65
2019-02-07T08:11:02.495Z,1004.69
2019-02-07T08:12:02.448Z,1004.72
2019-02-07T08:13:02.438Z,1004.80
2019-02-07T08:14:02.434Z,1004.84
2019-02-07T08:15:02.448Z,1004.80
2019-02-07T08:16:02.416Z,1004.78
2019-02-07T08:17:02.398Z,1004.75
2019-02-07T08:18:02.390Z,1004.85
2019-02-07T08:19:02.366Z,1004.90
2019-02-07T08:20:02.376Z,1004.91
2019-02-07T08:21:02.352Z,1004.92
2019-02-07T08:22:02.332Z,1004.85
2019-02-07T08:23:02.346Z,1004.93
2019-02-07T08:24:02.310Z,1004.90
2019-02-07T08:25:02.307Z,1004.97
2019-02-07T08:26:02.285Z,1004.94
2019-02-07T08:27:02.297Z,1005.04
2019-02-07T08:28:02.273Z,1005.03
2019-02-07T08:29:02.285Z,1005.02
2019-02-07T08:30:02.245Z,1004.96
2019-02-07T08:31:02.232Z,1005.00
2019-02-07T08:32:02.408Z,1004.97
2019-02-07T08:33:02.222Z,1004.97
2019-02-07T08:34:02.212Z,1004.92
2019-02-07T08:35:02.265Z,1005.03
2019-02-07T08:36:02.181Z,1004.99
2019-02-07T08:37:02.165Z,1005.04
2019-02-07T08:38:02.185Z,1005.07
2019-02-07T08:39:02.147Z,1005.03
2019-02-07T08:40:02.177Z,1005.01
2019-02-07T08:41:02.136Z,1005.02
2019-02-07T08:42:02.108Z,1005.09
2019-02-07T08:43:02.106Z,1005.03
2019-02-07T08:44:02.096Z,1005.02
2019-02-07T08:45:02.096Z,1005.04
2019-02-07T08:46:02.108Z,1005.04
2019-02-07T08:47:02.068Z,1005.12
2019-02-07T08:48:03.856Z,1005.14
2019-02-07T08:49:02.031Z,1005.18
2019-02-07T08:50:02.027Z,1005.09
2019-02-07T08:51:02.144Z,1005.17
2019-02-07T08:52:02.058Z,1005.24
2019-02-07T08:53:01.987Z,1005.22
2019-02-07T08:54:02.054Z,1005.22
2019-02-07T08:55:01.964Z,1005.21
2019-02-07T08:56:01.964Z,1005.16
2019-02-07T08:57:01.964Z,1005.22
2019-02-07T08:58:01.938Z,1005.24
2019-02-07T08:59:01.924Z,1005.20
2019-02-07T09:00:01.912Z,1005.24
2019-02-07T09:01:01.902Z,1005.23
2019-02-07T09:02:01.895Z,1005.22
2019-02-07T09:03:01.911Z,1005.27
2019-02-07T09:04:01.875Z,1005.21
2019-02-07T09:05:01.860Z,1005.27
2019-02-07T09:06:02.490Z,1005.18
2019-02-07T09:07:01.897Z,1005.19
2019-02-07T09:08:01.826Z,1005.26
2019-02-07T09:09:01.861Z,1005.25
2019-02-07T09:10:01.867Z,1005.17
2019-02-07T09:11:01.797Z,1005.21
2019-02-07T09:12:01.889Z,1005.17
2019-02-07T09:13:01.855Z,1005.22
2019-02-07T09:14:01.760Z,1005.18
2019-02-07T09:15:01.811Z,1005.27
2019-02-07T09:16:01.730Z,1005.31
2019-02-07T09:17:01.738Z,1005.24
2019-02-07T09:18:09.855Z,1005.26
2019-02-07T09:19:02.713Z,1005.21
2019-02-07T09:20:01.704Z,1005.16
2019-02-07T09:21:01.725Z,1005.20
2019-02-07T09:22:01.670Z,1005.23
2019-02-07T09:23:01.667Z,1005.26
2019-02-07T09:24:01.642Z,1005.28
2019-02-07T09:25:01.629Z,1005.32
2019-02-07T09:26:01.647Z,1005.38
2019-02-07T09:27:01.629Z,1005.37
2019-02-07T09:28:01.666Z,1005.44
2019-02-07T09:29:01.605Z,1005.45
2019-02-07T09:30:01.581Z,1005.49
2019-02-07T09:31:01.649Z,1005.31
2019-02-07T09:32:01.583Z,1005.34
2019-02-07T09:33:01.542Z,1005.50
2019-02-07T09:34:01.541Z,1005.44
2019-02-07T09:35:01.518Z,1005.43
2019-02-07T09:36:05.246Z,1005.42
2019-02-07T09:37:01.506Z,1005.47
2019-02-07T09:38:02.016Z,1005.48
2019-02-07T09:39:01.477Z,1005.46
2019-02-07T09:40:01.468Z,1005.40
2019-02-07T09:41:01.454Z,1005.43
2019-02-07T09:42:01.442Z,1005.44
2019-02-07T09:43:01.457Z,1005.47
2019-02-07T09:44:01.424Z,1005.55
2019-02-07T09:45:01.412Z,1005.53
2019-02-07T09:46:01.396Z,1005.58
2019-02-07T09:47:01.483Z,1005.58
2019-02-07T09:48:01.399Z,1005.61
2019-02-07T09:49:01.397Z,1005.57
2019-02-07T09:50:01.353Z,1005.67
2019-02-07T09:51:01.339Z,1005.70
2019-02-07T09:52:01.338Z,1005.66
2019-02-07T09:53:01.319Z,1005.63
2019-02-07T09:54:01.329Z,1005.61
2019-02-07T09:55:01.347Z,1005.61
2019-02-07T09:56:01.289Z,1005.68
2019-02-07T09:57:01.278Z,1005.66
2019-02-07T09:58:01.276Z,1005.67
2019-02-07T09:59:03.271Z,1005.67
2019-02-07T10:00:01.271Z,1005.68
2019-02-07T10:01:01.227Z,1005.64
2019-02-07T10:02:01.220Z,1005.67
2019-02-07T10:03:01.240Z,1005.71
2019-02-07T10:04:01.194Z,1005.78
2019-02-07T10:05:01.240Z,1005.72
2019-02-07T10:06:01.199Z,1005.75
2019-02-07T10:07:01.159Z,1005.78
2019-02-07T10:08:01.155Z,1005.72
2019-02-07T10:09:01.143Z,1005.81
2019-02-07T10:10:01.135Z,1005.57
2019-02-07T10:11:01.122Z,1005.75
2019-02-07T10:12:01.148Z,1005.64
2019-02-07T10:13:01.109Z,1005.74
2019-02-07T10:14:01.185Z,1005.80
2019-02-07T10:15:01.075Z,1005.79
2019-02-07T10:16:01.056Z,1005.79
2019-02-07T10:17:01.089Z,1005.82
2019-02-07T10:18:01.071Z,1005.77
2019-02-07T10:19:01.027Z,1005.82
2019-02-07T10:20:01.031Z,1005.85
2019-02-07T10:21:01.013Z,1005.93
2019-02-07T10:22:01.008Z,1005.95
2019-02-07T10:23:00.998Z,1005.82
2019-02-07T10:24:00.974Z,1005.96
2019-02-07T10:25:00.962Z,1005.94
2019-02-07T10:26:00.983Z,1006.01
2019-02-07T10:27:00.936Z,1005.97
2019-02-07T10:28:00.924Z,1005.93
2019-02-07T10:29:00.934Z,1006.02
2019-02-07T10:30:01.056Z,1006.00
2019-02-07T10:31:00.889Z,1005.97
2019-02-07T10:32:00.884Z,1005.90
2019-02-07T10:33:00.951Z,1005.98
2019-02-07T10:34:00.862Z,1005.95
2019-02-07T10:35:00.843Z,1005.97
2019-02-07T10:36:00.862Z,1005.95
2019-02-07T10:37:00.831Z,1005.87
2019-02-07T10:38:00.813Z,1005.86
2019-02-07T10:39:00.802Z,1005.89
2019-02-07T10:40:00.827Z,1005.89
2019-02-07T10:41:00.777Z,1005.89
2019-02-07T10:42:00.806Z,1005.93
2019-02-07T10:43:00.775Z,1005.90
2019-02-07T10:44:00.773Z,1005.89
2019-02-07T10:45:00.739Z,1005.94
2019-02-07T10:46:00.723Z,1005.84
2019-02-07T10:47:00.717Z,1005.88
2019-02-07T10:48:00.723Z,1005.87
2019-02-07T10:49:00.686Z,1005.88
2019-02-07T10:50:00.678Z,1005.88
2019-02-07T10:51:00.686Z,1005.95
2019-02-07T10:52:00.673Z,1005.97
2019-02-07T10:53:00.761Z,1005.95
2019-02-07T10:54:00.824Z,1005.87
2019-02-07T10:55:00.622Z,1005.87
2019-02-07T10:56:00.651Z,1005.88
2019-02-07T10:57:00.609Z,1005.80
2019-02-07T10:58:00.589Z,1005.85
2019-02-07T10:59:00.607Z,1005.84
2019-02-07T11:00:00.582Z,1005.76
2019-02-07T11:01:00.569Z,1005.83
2019-02-07T11:02:00.542Z,1005.82
2019-02-07T11:03:00.580Z,1005.77
2019-02-07T11:04:00.522Z,1005.74
2019-02-07T11:05:00.528Z,1005.72
2019-02-07T11:06:00.506Z,1005.70
2019-02-07T11:07:00.491Z,1005.68
2019-02-07T11:08:00.480Z,1005.76
2019-02-07T11:09:00.499Z,1005.67
2019-02-07T11:10:00.560Z,1005.68
2019-02-07T11:11:02.755Z,1005.68
2019-02-07T11:12:00.442Z,1005.73
2019-02-07T11:13:00.473Z,1005.59
2019-02-07T11:14:00.415Z,1005.65
2019-02-07T11:15:00.462Z,1005.62
2019-02-07T11:16:00.394Z,1005.60
2019-02-07T11:17:00.377Z,1005.60
2019-02-07T11:18:00.369Z,1005.55
2019-02-07T11:19:00.356Z,1005.56
2019-02-07T11:20:00.370Z,1005.63
2019-02-07T11:21:00.361Z,1005.73
2019-02-07T11:22:00.338Z,1005.57
2019-02-07T11:23:00.314Z,1005.56
2019-02-07T11:24:00.299Z,1005.61
2019-02-07T11:25:00.308Z,1005.55
2019-02-07T11:26:00.312Z,1005.68
2019-02-07T11:27:00.288Z,1005.62
2019-02-07T11:28:10.133Z,1005.64
2019-02-07T11:29:01.254Z,1005.73
2019-02-07T11:30:00.364Z,1005.71
2019-02-07T11:31:00.224Z,1005.74
2019-02-07T11:32:00.231Z,1005.78
2019-02-07T11:33:00.208Z,1005.65
2019-02-07T11:34:00.282Z,1005.70
2019-02-07T11:35:00.357Z,1005.66
2019-02-07T11:36:00.170Z,1005.72
2019-02-07T11:37:00.245Z,1005.73
2019-02-07T11:38:00.155Z,1005.72
2019-02-07T11:39:00.186Z,1005.70
2019-02-07T11:40:00.325Z,1005.72
2019-02-07T11:41:00.134Z,1005.64
2019-02-07T11:42:00.141Z,1005.69
2019-02-07T11:43:00.090Z,1005.64
2019-02-07T11:44:00.078Z,1005.72
2019-02-07T11:45:00.317Z,1005.60
2019-02-07T11:46:00.075Z,1005.64
2019-02-07T11:47:05.553Z,1005.62
2019-02-07T11:48:01.039Z,1005.58
2019-02-07T11:49:06.470Z,1005.58
2019-02-07T11:50:01.022Z,1005.67
2019-02-07T11:50:59.999Z,1005.61
2019-02-07T11:51:59.988Z,1005.62
2019-02-07T11:52:59.998Z,1005.53
2019-02-07T11:53:59.975Z,1005.56
2019-02-07T11:54:59.961Z,1005.46
2019-02-07T11:55:59.942Z,1005.59
2019-02-07T11:56:59.932Z,1005.67
2019-02-07T11:57:59.954Z,1005.50
2019-02-07T11:58:59.916Z,1005.54
2019-02-07T11:59:59.903Z,1005.51
2019-02-07T12:00:59.891Z,1005.59
2019-02-07T12:02:08.870Z,1005.51
2019-02-07T12:03:01.454Z,1005.57
2019-02-07T12:03:59.889Z,1005.45
2019-02-07T12:04:59.848Z,1005.49